The Hangar Logo

METARs in Plain English
Latest METAR information for EGVN - BRIZE NORTON

EGVN 301450Z 22007KT 9999 FEW036 SCT250 21/10 Q1022 BLU NOSIG

In plain english is....

This is a METAR report for EGVN - BRIZE NORTON .
The report was made 59 minutes ago, at 14:50 UTC.
The wind was blowing at a speed of 7 knots (8.1 miles per hour, 3.6 metres per second) from the Southwest (220°).
The visibility was greater than 6.2 miles (greater than 10 kilometres).
There were a few clouds at a height of 3600 feet (1097 metres) and scattered clouds at a height of 25000 feet (7620 metres).
The temperature was 21°C (70°F), a dew point of 10°C (50°F) and a relative humidity of 49.4%.
The altimeter setting (airfield QNH) was 1,022 hPa (30.18 inHg).
Other remarks BLU NOSIG.

UK Mainland

Ireland

Channel Islands

France

Other



Enter
Tel: 07092 887559 - Fax: 07092 183262

Terms of Use | Privacy Statement
Content copyright © 1999-2012 TheHangar.co.uk. All rights reserved.
Please send your questions, comments, or bug reports to the Webmaster.